Time;durP1;ratioP1;P1;durP2;ratioP2;P2;SDS_P1;SDS_P2;PMS_P1;PMS_P2;Temp;Humidity;BMP_temperature;BMP_pressure;BME280_temperature;BME280_humidity;BME280_pressure;Samples;Min_cycle;Max_cycle;Signal;HPM_P1;HPM_P2
2022/05/10 00:01:38;;;;;;;11.50;4.00;;;13.90;93.70;;;;;;5052464;28;20533;-74
2022/05/10 00:04:05;;;;;;;11.85;3.83;;;13.90;93.80;;;;;;5036278;28;20397;-76
2022/05/10 00:06:43;;;;;;;16.65;4.32;;;13.80;94.00;;;;;;5052985;28;20053;-75
2022/05/10 00:09:10;;;;;;;10.68;4.15;;;13.70;94.20;;;;;;5035241;28;20049;-74
2022/05/10 00:11:36;;;;;;;12.73;3.85;;;13.70;94.10;;;;;;5051869;28;20044;-76
2022/05/10 00:14:03;;;;;;;21.35;4.80;;;13.70;94.50;;;;;;5019574;28;20060;-75
2022/05/10 00:16:28;;;;;;;10.77;4.20;;;13.60;94.90;;;;;;5053057;28;20049;-75
2022/05/10 00:18:54;;;;;;;13.50;4.45;;;13.60;94.80;;;;;;5051964;28;20507;-75
2022/05/10 00:21:23;;;;;;;14.88;3.78;;;13.50;94.80;;;;;;5052715;28;20037;-76
2022/05/10 00:23:50;;;;;;;13.18;4.32;;;13.50;95.10;;;;;;5053440;28;20071;-74
2022/05/10 00:26:16;;;;;;;12.60;4.30;;;13.50;97.50;;;;;;5051474;28;20057;-76
2022/05/10 00:28:42;;;;;;;11.87;4.43;;;13.50;97.60;;;;;;5034815;28;20287;-75
2022/05/10 00:31:09;;;;;;;12.32;5.03;;;13.40;99.90;;;;;;5051384;28;20103;-75
2022/05/10 00:33:37;;;;;;;12.23;4.47;;;13.30;99.90;;;;;;5051798;28;20060;-75
2022/05/10 00:36:04;;;;;;;13.05;4.82;;;13.20;99.90;;;;;;5052302;28;20048;-74
2022/05/10 00:38:35;;;;;;;12.48;5.07;;;13.20;99.90;;;;;;5052087;28;20426;-77
2022/05/10 00:41:11;;;;;;;12.05;4.97;;;13.20;99.90;;;;;;5052650;28;20041;-76
2022/05/10 00:43:42;;;;;;;12.48;5.30;;;13.10;99.90;;;;;;5034865;28;20102;-76
2022/05/10 00:46:23;;;;;;;15.65;5.88;;;13.00;99.90;;;;;;5035186;28;20139;-75
2022/05/10 00:48:55;;;;;;;13.18;5.88;;;13.00;99.90;;;;;;5053128;28;20074;-74
2022/05/10 00:51:24;;;;;;;15.57;6.38;;;12.90;99.90;;;;;;5035174;28;20067;-74
2022/05/10 00:53:52;;;;;;;17.60;6.50;;;12.80;99.90;;;;;;5052050;28;20045;-76
2022/05/10 00:56:29;;;;;;;18.50;5.72;;;12.90;99.90;;;;;;5052029;28;20079;-74
2022/05/10 00:59:11;;;;;;;14.55;6.35;;;12.80;99.90;;;;;;5034549;28;20112;-75
2022/05/10 01:01:40;;;;;;;18.10;6.10;;;12.80;99.90;;;;;;5052315;28;20037;-75
2022/05/10 01:04:17;;;;;;;15.68;5.88;;;12.90;99.90;;;;;;5052160;28;20048;-75
2022/05/10 01:06:57;;;;;;;14.65;6.47;;;12.90;99.90;;;;;;5051066;28;20080;-75
2022/05/10 01:09:38;;;;;;;15.10;5.85;;;12.90;99.90;;;;;;5052230;28;20045;-74
2022/05/10 01:12:22;;;;;;;16.67;6.43;;;12.80;99.90;;;;;;5051501;28;20369;-74
2022/05/10 01:14:54;;;;;;;14.50;6.20;;;12.70;99.90;;;;;;5052027;28;20052;-75
2022/05/10 01:17:20;;;;;;;18.08;6.68;;;12.60;99.90;;;;;;5052797;28;20109;-74
2022/05/10 01:19:46;;;;;;;16.48;6.60;;;12.50;99.90;;;;;;5051142;28;20056;-74
2022/05/10 01:22:46;;;;;;;14.98;6.07;;;12.40;99.90;;;;;;5051772;28;20041;-73
2022/05/10 01:25:37;;;;;;;17.52;7.00;;;12.40;99.90;;;;;;5051901;28;20049;-73
2022/05/10 01:28:27;;;;;;;14.63;6.57;;;12.30;99.90;;;;;;5052494;28;20507;-74
2022/05/10 01:30:55;;;;;;;17.00;6.90;;;12.30;99.90;;;;;;5052704;28;20099;-73
2022/05/10 01:33:41;;;;;;;15.52;6.18;;;12.30;99.90;;;;;;5051175;28;20377;-74
2022/05/10 01:36:39;;;;;;;16.90;6.85;;;12.30;99.90;;;;;;5051845;28;20049;-74
2022/05/10 01:39:09;;;;;;;17.08;6.47;;;12.30;99.90;;;;;;5052684;28;20049;-74
2022/05/10 01:42:10;;;;;;;19.52;7.18;;;12.30;99.90;;;;;;5051322;28;20397;-77
2022/05/10 01:44:53;;;;;;;18.63;6.93;;;12.30;99.90;;;;;;5052315;28;20478;-77
2022/05/10 01:47:21;;;;;;;16.38;6.93;;;12.40;99.90;;;;;;5051899;28;20189;-76
2022/05/10 01:49:54;;;;;;;19.77;7.50;;;12.40;99.90;;;;;;5051677;28;20052;-75
2022/05/10 01:52:31;;;;;;;16.85;7.10;;;12.40;99.90;;;;;;5051154;28;20085;-76
2022/05/10 01:55:02;;;;;;;17.27;7.55;;;12.40;99.90;;;;;;5051187;28;20122;-74
2022/05/10 01:57:31;;;;;;;24.50;7.43;;;12.40;99.90;;;;;;5051100;28;20060;-74
2022/05/10 02:00:11;;;;;;;20.25;8.63;;;12.40;99.90;;;;;;5050916;28;20053;-75
2022/05/10 02:02:41;;;;;;;25.85;8.05;;;12.40;99.90;;;;;;5050574;28;20049;-75
2022/05/10 02:05:12;;;;;;;15.93;7.65;;;12.40;99.90;;;;;;5052241;28;20088;-75
2022/05/10 02:07:41;;;;;;;27.33;9.30;;;12.40;99.90;;;;;;5055058;28;20114;-75
2022/05/10 02:10:25;;;;;;;18.00;8.05;;;12.40;99.90;;;;;;5053850;28;20496;-75
2022/05/10 02:13:04;;;;;;;20.67;8.20;;;12.40;99.90;;;;;;5054014;28;20056;-74
2022/05/10 02:15:58;;;;;;;17.73;7.10;;;12.40;99.90;;;;;;5053793;28;20076;-74
2022/05/10 02:18:38;;;;;;;20.55;8.20;;;12.40;99.90;;;;;;5054238;28;20199;-74
2022/05/10 02:21:16;;;;;;;20.17;7.68;;;12.40;99.90;;;;;;5055550;28;20055;-74
2022/05/10 02:24:04;;;;;;;16.67;7.93;;;12.40;99.90;;;;;;5054359;28;20053;-77
2022/05/10 02:26:38;;;;;;;20.80;8.00;;;12.40;99.90;;;;;;5056171;28;20057;-74
2022/05/10 02:29:24;;;;;;;17.80;7.97;;;12.40;99.90;;;;;;5055813;28;20053;-74
2022/05/10 02:34:44;;;;;;;17.27;8.02;;;12.40;99.90;;;;;;5055641;28;20388;-74
2022/05/10 02:37:10;;;;;;;20.10;8.80;;;12.40;99.90;;;;;;5054914;28;20504;-74
2022/05/10 02:39:36;;;;;;;19.45;8.25;;;12.40;99.90;;;;;;5053986;28;20088;-74
2022/05/10 02:42:04;;;;;;;20.50;8.98;;;12.40;99.90;;;;;;5054566;28;20041;-74
2022/05/10 02:44:30;;;;;;;17.13;8.10;;;12.40;99.90;;;;;;5053502;28;20065;-75
2022/05/10 02:46:55;;;;;;;19.33;9.52;;;12.40;99.90;;;;;;5054949;28;20146;-74
2022/05/10 02:49:22;;;;;;;23.88;8.75;;;12.50;99.90;;;;;;5053545;28;20088;-74
2022/05/10 02:51:47;;;;;;;22.33;10.17;;;12.40;99.90;;;;;;5054454;28;20040;-74
2022/05/10 02:54:13;;;;;;;21.67;9.82;;;12.50;99.90;;;;;;5053119;28;20279;-74
2022/05/10 02:56:41;;;;;;;22.73;8.98;;;12.50;99.90;;;;;;5053118;28;20122;-74
2022/05/10 02:59:12;;;;;;;26.38;10.52;;;12.50;99.90;;;;;;5036949;28;20085;-74
2022/05/10 03:02:02;;;;;;;21.30;9.73;;;12.50;99.90;;;;;;5054648;28;20402;-74
2022/05/10 03:04:37;;;;;;;21.88;9.70;;;12.50;99.90;;;;;;5037245;28;20045;-74
2022/05/10 03:07:04;;;;;;;19.58;10.50;;;12.60;99.90;;;;;;5054737;28;20452;-74
2022/05/10 03:09:30;;;;;;;19.50;9.77;;;12.60;99.90;;;;;;5053356;28;20052;-74
2022/05/10 03:11:55;;;;;;;19.00;9.95;;;12.60;99.90;;;;;;5036266;28;20079;-74
2022/05/10 03:14:21;;;;;;;25.75;10.65;;;12.60;99.90;;;;;;5020037;28;20080;-74
2022/05/10 03:16:47;;;;;;;22.80;10.77;;;12.70;99.90;;;;;;5051641;28;20041;-77
2022/05/10 03:19:12;;;;;;;22.27;11.50;;;12.70;99.90;;;;;;5054604;28;20071;-74
2022/05/10 03:21:39;;;;;;;20.73;10.35;;;12.70;99.90;;;;;;5036024;28;20460;-74
2022/05/10 03:24:06;;;;;;;28.08;10.95;;;12.80;99.90;;;;;;5053941;28;20069;-76
2022/05/10 03:26:33;;;;;;;26.92;11.13;;;12.80;99.90;;;;;;5053603;28;20577;-75
2022/05/10 03:28:59;;;;;;;25.23;11.32;;;12.90;99.90;;;;;;5052620;28;20508;-74
2022/05/10 03:31:26;;;;;;;24.98;11.40;;;12.90;99.90;;;;;;5036278;28;20049;-74
2022/05/10 03:36:48;;;;;;;25.35;11.02;;;13.00;99.90;;;;;;4999192;28;20066;-75
2022/05/10 03:39:13;;;;;;;25.00;11.40;;;13.00;99.90;;;;;;5052764;28;20045;-74
2022/05/10 03:41:39;;;;;;;23.52;10.93;;;13.00;99.90;;;;;;5035729;28;20481;-75
2022/05/10 03:44:06;;;;;;;25.98;12.18;;;13.10;99.90;;;;;;5052474;28;20080;-74
2022/05/10 03:46:32;;;;;;;26.70;11.15;;;13.10;99.90;;;;;;5053687;28;20529;-73
2022/05/10 03:48:58;;;;;;;26.73;11.23;;;13.10;99.90;;;;;;5052044;28;20048;-74
2022/05/10 03:51:24;;;;;;;23.45;11.25;;;13.20;99.90;;;;;;5052188;28;20041;-74
2022/05/10 03:53:49;;;;;;;25.00;11.38;;;13.20;99.90;;;;;;5052177;28;20048;-73
2022/05/10 03:56:15;;;;;;;28.27;11.18;;;13.20;99.90;;;;;;5052410;28;20040;-75
2022/05/10 03:58:41;;;;;;;26.50;11.75;;;13.20;99.90;;;;;;5051908;28;20482;-75
2022/05/10 04:01:07;;;;;;;22.73;11.13;;;13.20;99.90;;;;;;5035272;28;20400;-74
2022/05/10 04:03:34;;;;;;;29.42;11.63;;;13.20;99.90;;;;;;5019161;28;20057;-74
2022/05/10 04:06:00;;;;;;;27.85;12.05;;;13.30;99.90;;;;;;5051831;28;20132;-74
2022/05/10 04:08:27;;;;;;;24.77;11.50;;;13.30;99.90;;;;;;5052527;28;20045;-74
2022/05/10 04:10:53;;;;;;;27.95;12.00;;;13.20;99.90;;;;;;5052691;28;20542;-78
2022/05/10 04:13:19;;;;;;;23.70;11.10;;;13.20;99.90;;;;;;5035211;28;20460;-75
2022/05/10 04:15:45;;;;;;;24.83;11.45;;;13.20;99.90;;;;;;5052887;28;20041;-75
2022/05/10 04:18:11;;;;;;;24.15;11.75;;;13.30;99.90;;;;;;5051829;28;20076;-75
2022/05/10 04:20:37;;;;;;;29.42;11.93;;;13.30;99.90;;;;;;5052874;28;20535;-75
2022/05/10 04:23:02;;;;;;;21.85;10.82;;;13.30;99.90;;;;;;5051553;28;20410;-74
2022/05/10 04:25:28;;;;;;;26.70;12.73;;;13.40;99.90;;;;;;5051770;28;20132;-74
2022/05/10 04:27:55;;;;;;;30.13;11.88;;;13.40;99.90;;;;;;5051895;28;20052;-75
2022/05/10 04:30:22;;;;;;;23.52;11.13;;;13.40;99.90;;;;;;5051238;28;20068;-75
2022/05/10 04:32:49;;;;;;;27.30;11.63;;;13.50;99.90;;;;;;5052667;28;20045;-75
2022/05/10 04:35:15;;;;;;;26.60;12.60;;;13.50;99.90;;;;;;5051339;28;20060;-75
2022/05/10 04:37:41;;;;;;;27.25;12.30;;;13.60;99.90;;;;;;5051461;28;20342;-74
2022/05/10 04:42:57;;;;;;;22.60;12.90;;;13.60;99.90;;;;;;5053229;28;20049;-77
2022/05/10 04:45:23;;;;;;;24.42;11.82;;;13.70;99.90;;;;;;5052375;28;20051;-75
2022/05/10 04:47:48;;;;;;;25.13;11.93;;;13.80;99.90;;;;;;5051064;28;20048;-74
2022/05/10 04:50:15;;;;;;;27.02;12.13;;;13.90;99.90;;;;;;5052053;28;20079;-74
2022/05/10 04:52:41;;;;;;;21.73;11.77;;;13.90;99.90;;;;;;5052746;28;20080;-75
2022/05/10 04:55:09;;;;;;;24.08;12.25;;;14.00;99.90;;;;;;5052016;28;20547;-74
2022/05/10 04:57:39;;;;;;;24.77;12.38;;;14.00;99.90;;;;;;5034982;28;20087;-74
2022/05/10 05:00:09;;;;;;;26.98;12.35;;;14.00;99.90;;;;;;5018667;28;20057;-75
2022/05/10 05:02:36;;;;;;;28.92;11.02;;;14.10;99.90;;;;;;5052564;28;20059;-74
2022/05/10 05:05:02;;;;;;;26.30;12.48;;;14.10;99.90;;;;;;5050899;28;20064;-76
2022/05/10 05:07:31;;;;;;;25.80;11.57;;;14.20;99.90;;;;;;5051821;28;20604;-75
2022/05/10 05:09:56;;;;;;;25.58;11.88;;;14.20;99.90;;;;;;5051282;28;20041;-75
2022/05/10 05:12:22;;;;;;;25.38;11.60;;;14.30;99.90;;;;;;5050846;28;20503;-75
2022/05/10 05:14:48;;;;;;;20.92;11.43;;;14.40;99.90;;;;;;5034633;28;20099;-75
2022/05/10 05:17:14;;;;;;;21.65;10.77;;;14.40;99.90;;;;;;5034423;28;20122;-76
2022/05/10 05:19:40;;;;;;;23.95;10.40;;;14.50;99.90;;;;;;5050819;28;20128;-75
2022/05/10 05:22:06;;;;;;;25.92;11.18;;;14.60;99.90;;;;;;5051941;28;20037;-75
2022/05/10 05:24:32;;;;;;;25.45;11.88;;;14.70;99.90;;;;;;5052047;28;20116;-74
2022/05/10 05:26:57;;;;;;;27.83;11.48;;;14.70;99.90;;;;;;5033799;28;20065;-74
2022/05/10 05:29:23;;;;;;;24.55;11.32;;;14.80;99.90;;;;;;5051264;28;20044;-75
2022/05/10 05:31:51;;;;;;;21.25;10.75;;;14.90;99.90;;;;;;5051885;28;20483;-75
2022/05/10 05:34:17;;;;;;;19.27;11.27;;;14.90;99.90;;;;;;5051240;28;20049;-75
2022/05/10 05:36:44;;;;;;;26.00;12.15;;;15.00;99.90;;;;;;5034274;28;20548;-74
2022/05/10 05:39:09;;;;;;;26.25;11.63;;;15.00;99.90;;;;;;5050798;28;20059;-75
2022/05/10 05:41:35;;;;;;;25.58;11.02;;;15.10;99.90;;;;;;5056274;28;20045;-75
2022/05/10 05:44:01;;;;;;;22.75;11.75;;;15.10;99.90;;;;;;5038827;28;20055;-75
2022/05/10 05:46:27;;;;;;;23.33;11.23;;;15.20;99.90;;;;;;5038148;28;20049;-74
2022/05/10 05:48:52;;;;;;;24.45;11.82;;;15.20;99.90;;;;;;5055855;28;20080;-75
2022/05/10 05:51:18;;;;;;;23.70;11.40;;;15.30;99.90;;;;;;5054800;28;20445;-75
2022/05/10 05:53:44;;;;;;;23.20;11.35;;;15.40;99.90;;;;;;5055674;28;20053;-75
2022/05/10 05:56:10;;;;;;;22.60;11.77;;;15.50;99.90;;;;;;5037566;28;20067;-75
2022/05/10 05:58:37;;;;;;;25.02;11.85;;;15.50;99.90;;;;;;5054549;28;20080;-75
2022/05/10 06:01:11;;;;;;;20.33;11.30;;;15.60;99.90;;;;;;5038119;28;20392;-75
2022/05/10 06:03:36;;;;;;;25.30;11.40;;;15.70;99.90;;;;;;5054684;28;20473;-75
2022/05/10 06:06:02;;;;;;;24.02;12.13;;;15.80;99.90;;;;;;5054698;28;20057;-75
2022/05/10 06:08:28;;;;;;;27.35;12.35;;;15.80;99.90;;;;;;5038018;28;20048;-75
2022/05/10 06:10:55;;;;;;;23.88;11.93;;;15.90;99.90;;;;;;5054492;28;20051;-76
2022/05/10 06:13:22;;;;;;;27.35;12.52;;;16.00;99.90;;;;;;5055231;28;20044;-75
2022/05/10 06:15:49;;;;;;;26.33;12.40;;;16.10;99.90;;;;;;5054003;28;20052;-73
2022/05/10 06:18:15;;;;;;;20.48;11.07;;;16.20;99.90;;;;;;5053941;28;20053;-75
2022/05/10 06:20:41;;;;;;;25.17;11.70;;;16.30;99.90;;;;;;5037834;28;20049;-74
2022/05/10 06:23:09;;;;;;;25.67;11.98;;;16.40;99.90;;;;;;5054746;28;20152;-75
2022/05/10 06:25:36;;;;;;;26.08;11.85;;;16.60;99.90;;;;;;5053861;28;20111;-74
2022/05/10 06:28:02;;;;;;;;;;;16.70;99.90;;;;;;5055545;28;20053;-74
2022/05/10 06:30:29;;;;;;;21.90;11.32;;;16.90;99.90;;;;;;5055106;28;19959;-75
2022/05/10 06:32:57;;;;;;;24.98;12.00;;;17.10;99.90;;;;;;5055167;28;20049;-74
2022/05/10 06:35:23;;;;;;;22.75;11.10;;;17.20;99.90;;;;;;5037655;28;20110;-74
2022/05/10 06:40:55;;;;;;;23.40;11.90;;;17.40;99.90;;;;;;4977655;28;20050;-74
2022/05/10 06:43:21;;;;;;;24.70;11.15;;;17.50;99.90;;;;;;4977080;28;20054;-75
2022/05/10 06:45:47;;;;;;;22.50;11.15;;;17.50;99.90;;;;;;5022544;28;20072;-76
2022/05/10 06:48:14;;;;;;;22.25;10.95;;;17.50;99.90;;;;;;5053061;28;20485;-74
2022/05/10 06:50:41;;;;;;;;;;;17.50;99.90;;;;;;5053944;28;20045;-75
2022/05/10 06:53:07;;;;;;;22.20;10.85;;;17.40;99.90;;;;;;5053580;28;19920;-75
2022/05/10 06:55:35;;;;;;;24.17;12.48;;;17.40;99.90;;;;;;5054967;28;20560;-75
2022/05/10 06:58:01;;;;;;;26.42;12.38;;;17.40;99.90;;;;;;5054455;28;20071;-75
2022/05/10 07:00:29;;;;;;;27.38;11.90;;;17.40;99.90;;;;;;5070176;28;20489;-74
2022/05/10 07:02:55;;;;;;;20.35;12.02;;;17.50;99.90;;;;;;5054891;28;20051;-75
2022/05/10 07:05:21;;;;;;;28.05;12.45;;;17.60;99.90;;;;;;5055083;28;20049;-75
2022/05/10 07:07:47;;;;;;;21.52;11.35;;;17.80;99.90;;;;;;5055303;28;20051;-75
2022/05/10 07:10:15;;;;;;;22.00;12.07;;;18.00;99.90;;;;;;5038190;28;20063;-79
2022/05/10 07:12:43;;;;;;;25.38;12.15;;;18.20;99.90;;;;;;5055812;28;20044;-76
2022/05/10 07:15:12;;;;;;;22.95;12.30;;;18.40;99.90;;;;;;5045158;28;20098;-75
2022/05/10 07:17:38;;;;;;;27.20;12.63;;;18.70;99.90;;;;;;5062996;28;20045;-74
2022/05/10 07:20:10;;;;;;;27.90;12.47;;;18.80;99.90;;;;;;5061539;28;20075;-72
2022/05/10 07:22:36;;;;;;;25.75;12.98;;;19.00;99.90;;;;;;5062460;28;20045;-76
2022/05/10 07:25:03;;;;;;;21.55;11.57;;;19.00;99.90;;;;;;5062571;28;20104;-74
2022/05/10 07:27:29;;;;;;;24.88;13.93;;;19.20;99.90;;;;;;5059854;28;20146;-73
2022/05/10 07:29:55;;;;;;;26.43;14.40;;;19.30;99.90;;;;;;5058701;28;20052;-75
2022/05/10 07:32:21;;;;;;;26.23;14.03;;;19.40;99.90;;;;;;5060758;28;20044;-76
2022/05/10 07:34:47;;;;;;;27.50;13.98;;;19.60;99.90;;;;;;5059872;28;20048;-74
2022/05/10 07:37:14;;;;;;;27.33;13.85;;;19.80;99.90;;;;;;5058850;28;20049;-75
2022/05/10 07:39:40;;;;;;;29.67;13.80;;;19.80;99.90;;;;;;5041089;28;20053;-76
2022/05/10 07:42:06;;;;;;;28.03;14.03;;;19.90;99.90;;;;;;5056372;28;20094;-74
2022/05/10 07:44:32;;;;;;;27.67;14.40;;;20.00;99.30;;;;;;5057860;28;20041;-75
2022/05/10 07:46:59;;;;;;;23.52;12.93;;;20.10;99.40;;;;;;5057169;28;20045;-75
2022/05/10 07:49:25;;;;;;;30.98;13.57;;;20.20;98.30;;;;;;5037904;28;20057;-73
2022/05/10 07:51:51;;;;;;;26.13;13.00;;;20.20;98.10;;;;;;5055344;28;20047;-75
2022/05/10 07:54:17;;;;;;;23.50;13.57;;;20.20;97.70;;;;;;5055865;28;20053;-77
2022/05/10 07:56:44;;;;;;;23.77;12.70;;;20.40;98.20;;;;;;5074359;28;20088;-74
2022/05/10 07:59:09;;;;;;;25.80;12.45;;;20.50;97.20;;;;;;5056629;28;20098;-78
2022/05/10 08:01:35;;;;;;;24.00;12.03;;;20.60;97.20;;;;;;5058104;28;20036;-75
2022/05/10 08:04:02;;;;;;;25.20;12.70;;;20.80;97.20;;;;;;5057465;28;20049;-75
2022/05/10 08:06:28;;;;;;;26.17;12.73;;;20.90;97.00;;;;;;5040695;28;20135;-74
2022/05/10 08:08:55;;;;;;;24.75;12.02;;;21.00;96.30;;;;;;5058424;28;20053;-76
2022/05/10 08:11:22;;;;;;;25.17;13.00;;;21.20;96.30;;;;;;5058347;28;20508;-76
2022/05/10 08:13:48;;;;;;;25.52;13.40;;;21.10;95.60;;;;;;5057429;28;20067;-75
2022/05/10 08:16:14;;;;;;;28.90;12.98;;;21.20;95.40;;;;;;5040047;28;20067;-77
2022/05/10 08:18:41;;;;;;;23.45;13.15;;;21.40;95.60;;;;;;5055116;28;20080;-74
2022/05/10 08:21:08;;;;;;;23.10;14.00;;;21.50;94.90;;;;;;5057348;28;20041;-77
2022/05/10 08:23:36;;;;;;;26.40;13.43;;;21.30;95.20;;;;;;5055762;28;20104;-74
2022/05/10 08:26:03;;;;;;;24.73;13.30;;;21.30;95.20;;;;;;5054909;28;20111;-75
2022/05/10 08:28:31;;;;;;;25.30;12.32;;;21.40;95.10;;;;;;5054993;28;20053;-75
2022/05/10 08:30:58;;;;;;;22.20;11.35;;;21.40;94.20;;;;;;5038068;28;20095;-74
2022/05/10 08:33:27;;;;;;;22.08;11.48;;;21.30;94.70;;;;;;5055144;28;20462;-75
2022/05/10 08:35:55;;;;;;;21.70;11.15;;;21.40;94.30;;;;;;5056588;28;20106;-76
2022/05/10 08:38:22;;;;;;;22.65;11.02;;;21.50;93.70;;;;;;5056988;28;20068;-80
2022/05/10 08:41:20;;;;;;;22.38;9.70;;;21.50;94.00;;;;;;5039052;28;20060;-77
2022/05/10 08:44:14;;;;;;;22.58;9.40;;;21.70;93.50;;;;;;5022438;28;20060;-74
2022/05/10 08:46:43;;;;;;;19.60;9.85;;;21.90;92.80;;;;;;5052480;28;20053;-75
2022/05/10 08:49:15;;;;;;;18.85;8.38;;;21.90;92.50;;;;;;5055684;28;20052;-74
2022/05/10 08:51:41;;;;;;;18.55;8.88;;;22.30;92.40;;;;;;5054478;28;20365;-75
2022/05/10 08:54:08;;;;;;;19.77;8.63;;;22.50;91.20;;;;;;5035887;28;20044;-76
2022/05/10 08:56:56;;;;;;;16.98;8.65;;;22.70;90.50;;;;;;5053916;28;20052;-76
2022/05/10 09:00:03;;;;;;;19.65;8.75;;;22.80;88.80;;;;;;5054068;28;20053;-75
2022/05/10 09:02:51;;;;;;;22.67;9.75;;;22.70;88.00;;;;;;5035326;28;20161;-75
2022/05/10 09:05:41;;;;;;;16.23;8.25;;;22.60;85.30;;;;;;5054277;28;20053;-76
2022/05/10 09:08:06;;;;;;;20.85;9.57;;;22.60;86.90;;;;;;5054303;28;20044;-77
2022/05/10 09:10:52;;;;;;;16.47;9.10;;;22.60;86.90;;;;;;5053407;28;20098;-75
2022/05/10 09:13:19;;;;;;;18.52;8.77;;;22.50;87.40;;;;;;5053745;28;20052;-75
2022/05/10 09:15:59;;;;;;;17.98;8.95;;;22.70;87.00;;;;;;5057620;28;20049;-74
2022/05/10 09:18:26;;;;;;;14.30;8.65;;;22.60;85.70;;;;;;5057656;28;20056;-74
2022/05/10 09:21:24;;;;;;;17.15;8.90;;;22.60;87.30;;;;;;5055970;28;20072;-77
2022/05/10 09:24:19;;;;;;;13.45;8.60;;;22.80;87.30;;;;;;5056541;28;20402;-74
2022/05/10 09:26:47;;;;;;;17.17;9.27;;;22.90;87.90;;;;;;5056410;28;20080;-75
2022/05/10 09:29:30;;;;;;;18.35;9.15;;;22.90;88.00;;;;;;5056425;28;20107;-76
2022/05/10 09:34:53;;;;;;;19.05;9.80;;;22.80;85.50;;;;;;5055264;28;20052;-75
2022/05/10 09:37:25;;;;;;;15.55;9.32;;;22.90;84.50;;;;;;5056372;28;20130;-76
2022/05/10 09:40:00;;;;;;;14.63;9.23;;;22.90;85.30;;;;;;5055139;28;20084;-74
2022/05/10 09:42:26;;;;;;;15.77;9.65;;;23.00;86.00;;;;;;5054752;28;20041;-75
2022/05/10 09:45:10;;;;;;;17.58;9.55;;;23.10;85.70;;;;;;5056459;28;20052;-76
2022/05/10 09:47:36;;;;;;;20.15;9.73;;;22.90;84.20;;;;;;5055259;28;20084;-76
2022/05/10 09:50:20;;;;;;;21.08;10.68;;;23.30;85.40;;;;;;5056622;28;20106;-75
2022/05/10 09:52:47;;;;;;;18.80;10.38;;;23.50;83.40;;;;;;5055147;28;20052;-73
2022/05/10 09:55:34;;;;;;;17.63;10.73;;;23.60;83.10;;;;;;5055879;28;20055;-74
2022/05/10 09:58:22;;;;;;;16.40;9.57;;;23.70;83.50;;;;;;5054731;28;20048;-74
2022/05/10 10:00:56;;;;;;;17.40;10.65;;;24.00;83.20;;;;;;5054400;28;20049;-74
2022/05/10 10:03:32;;;;;;;19.73;11.23;;;23.90;82.50;;;;;;5054728;28;20425;-74
2022/05/10 10:06:30;;;;;;;16.77;10.40;;;23.90;82.40;;;;;;5056081;28;20487;-74
2022/05/10 10:08:58;;;;;;;18.52;10.73;;;24.00;82.90;;;;;;5043018;28;20063;-74
2022/05/10 10:11:26;;;;;;;16.63;10.70;;;24.10;80.60;;;;;;5054384;28;20169;-76
2022/05/10 10:14:06;;;;;;;17.35;10.45;;;24.10;81.00;;;;;;5055474;28;20052;-77
2022/05/10 10:16:48;;;;;;;20.20;11.10;;;23.90;82.10;;;;;;5055716;28;20445;-76
2022/05/10 10:19:33;;;;;;;16.00;9.70;;;24.00;80.90;;;;;;5053936;28;20049;-76
2022/05/10 10:22:13;;;;;;;20.63;10.95;;;24.10;79.90;;;;;;5055603;28;20041;-75
2022/05/10 10:25:17;;;;;;;18.13;10.30;;;24.10;79.00;;;;;;5054602;28;20467;-76
2022/05/10 10:27:54;;;;;;;22.30;10.07;;;24.20;80.00;;;;;;5034842;28;20064;-76
2022/05/10 10:30:27;;;;;;;17.98;9.88;;;24.10;80.30;;;;;;5037883;28;20056;-74
2022/05/10 10:33:07;;;;;;;16.15;10.20;;;24.30;78.90;;;;;;5053710;28;20087;-74
2022/05/10 10:35:40;;;;;;;15.45;9.43;;;24.20;78.90;;;;;;5021524;28;20092;-75
2022/05/10 10:38:20;;;;;;;21.92;9.77;;;24.00;79.10;;;;;;5054940;28;20108;-74
2022/05/10 10:41:02;;;;;;;19.17;9.50;;;24.20;78.60;;;;;;5053621;28;20049;-75
2022/05/10 10:43:30;;;;;;;16.17;9.15;;;24.40;77.50;;;;;;5054673;28;20103;-75
2022/05/10 10:46:22;;;;;;;16.70;9.02;;;24.40;77.90;;;;;;5053537;28;20041;-75
2022/05/10 10:48:53;;;;;;;19.73;9.13;;;24.30;77.10;;;;;;5006757;28;20618;-75
2022/05/10 10:51:28;;;;;;;17.35;9.23;;;24.60;78.30;;;;;;5054471;28;20048;-73
2022/05/10 10:53:54;;;;;;;17.33;8.48;;;24.60;77.20;;;;;;5055017;28;20412;-75
2022/05/10 10:56:52;;;;;;;14.63;8.38;;;24.80;77.60;;;;;;5053644;28;20081;-74
2022/05/10 10:59:36;;;;;;;13.63;7.38;;;24.90;75.30;;;;;;5054851;28;20048;-74
2022/05/10 11:02:33;;;;;;;14.95;7.57;;;25.10;73.90;;;;;;5053645;28;20049;-76
2022/05/10 11:05:34;;;;;;;17.77;8.07;;;25.30;74.30;;;;;;5053140;28;20554;-74
2022/05/10 11:08:24;;;;;;;16.38;8.95;;;25.30;74.20;;;;;;5037261;28;20110;-75
2022/05/10 11:11:12;;;;;;;16.95;7.50;;;25.30;73.10;;;;;;5053959;28;20059;-76
2022/05/10 11:14:02;;;;;;;14.73;7.32;;;25.50;72.70;;;;;;5053511;28;20116;-76
2022/05/10 11:16:38;;;;;;;13.00;7.00;;;25.70;73.30;;;;;;5053527;28;20053;-76
2022/05/10 11:19:29;;;;;;;13.98;7.30;;;25.70;72.80;;;;;;5053451;28;20048;-75
2022/05/10 11:22:06;;;;;;;11.60;7.15;;;25.50;70.40;;;;;;5052969;28;20167;-73
2022/05/10 11:24:40;;;;;;;12.02;7.15;;;25.40;70.80;;;;;;5052607;28;20037;-74
2022/05/10 11:27:25;;;;;;;13.43;6.10;;;25.40;72.10;;;;;;5054292;28;20056;-76
2022/05/10 11:30:06;;;;;;;9.55;4.70;;;25.30;70.20;;;;;;5053760;28;20052;-75
2022/05/10 11:33:01;;;;;;;10.73;4.88;;;24.90;66.80;;;;;;5036783;28;20053;-75
2022/05/10 11:35:42;;;;;;;14.30;5.38;;;24.60;67.20;;;;;;5054055;28;20045;-76
2022/05/10 11:38:12;;;;;;;12.27;5.00;;;24.20;66.70;;;;;;5053675;28;20448;-73
2022/05/10 11:41:07;;;;;;;10.32;5.20;;;24.30;68.00;;;;;;5052773;28;20136;-74
2022/05/10 11:43:43;;;;;;;16.08;4.80;;;24.30;67.50;;;;;;5054210;28;20045;-76
2022/05/10 11:46:11;;;;;;;14.43;5.22;;;24.50;68.40;;;;;;5053047;28;20432;-76
2022/05/10 11:49:08;;;;;;;12.35;5.28;;;24.60;68.20;;;;;;5053624;28;20052;-74
2022/05/10 11:52:01;;;;;;;12.85;5.80;;;24.80;68.40;;;;;;5054470;28;20052;-77
2022/05/10 11:54:38;;;;;;;18.70;6.40;;;25.00;68.60;;;;;;5053801;28;20055;-78
2022/05/10 11:57:04;;;;;;;;;;;25.10;68.80;;;;;;5053014;28;20091;-76
2022/05/10 11:59:32;;;;;;;;;;;25.20;67.40;;;;;;5054022;28;20319;-75
2022/05/10 12:01:59;;;;;;;18.88;6.22;;;25.40;68.60;;;;;;5052373;28;19966;-77
2022/05/10 12:04:41;;;;;;;10.63;5.07;;;25.50;68.10;;;;;;5036602;28;20075;-75
2022/05/10 12:07:19;;;;;;;11.82;5.72;;;25.80;67.20;;;;;;5054005;28;20053;-74
2022/05/10 12:10:20;;;;;;;13.10;5.70;;;25.90;66.10;;;;;;5052626;28;20056;-74
2022/05/10 12:12:46;;;;;;;12.27;5.78;;;26.10;65.20;;;;;;5052638;28;20083;-75
2022/05/10 12:21:28;;;;;;;9.40;5.13;;;26.10;63.00;;;;;;5052743;28;20099;-76
2022/05/10 12:24:19;;;;;;;11.68;5.70;;;26.10;63.10;;;;;;5053327;28;20075;-76
2022/05/10 12:26:52;;;;;;;11.90;5.22;;;26.00;61.40;;;;;;5035165;28;20143;-74
2022/05/10 12:29:52;;;;;;;13.23;5.10;;;26.20;63.60;;;;;;5053246;28;20068;-76
2022/05/10 12:32:18;;;;;;;16.40;5.07;;;26.10;63.40;;;;;;5052299;28;20124;-76
2022/05/10 12:34:56;;;;;;;11.40;5.38;;;26.20;62.20;;;;;;5053341;28;20138;-75
2022/05/10 12:37:26;;;;;;;15.38;5.55;;;26.10;62.20;;;;;;5052085;28;20146;-77
2022/05/10 12:40:15;;;;;;;20.02;5.45;;;26.20;62.90;;;;;;5035848;28;20138;-80
2022/05/10 12:43:28;;;;;;;14.20;5.57;;;26.30;62.00;;;;;;5051669;28;20044;-76
2022/05/10 12:46:03;;;;;;;16.35;6.03;;;26.10;62.10;;;;;;5034942;28;20045;-76
2022/05/10 12:49:00;;;;;;;12.65;5.28;;;26.00;61.80;;;;;;5051399;28;20064;-75
2022/05/10 12:51:38;;;;;;;12.77;5.40;;;26.10;61.80;;;;;;5052244;28;20041;-76
2022/05/10 12:54:20;;;;;;;13.82;5.45;;;26.10;61.70;;;;;;5052932;28;20144;-75
2022/05/10 12:57:06;;;;;;;12.50;5.80;;;26.10;60.40;;;;;;5052367;28;20055;-75
2022/05/10 12:59:49;;;;;;;16.20;5.22;;;26.10;61.40;;;;;;5035275;28;20440;-75
2022/05/10 13:02:16;;;;;;;14.23;5.88;;;26.10;59.70;;;;;;5052495;28;20047;-73
2022/05/10 13:04:51;;;;;;;13.23;5.47;;;25.80;59.40;;;;;;5051315;28;20049;-75
2022/05/10 13:07:44;;;;;;;20.02;5.30;;;25.80;61.00;;;;;;5050973;28;20489;-76
2022/05/10 13:10:20;;;;;;;10.88;5.35;;;25.80;60.30;;;;;;5051460;28;20550;-76
2022/05/10 13:12:53;;;;;;;17.75;5.35;;;25.70;60.40;;;;;;5052156;28;20049;-76
2022/05/10 13:15:21;;;;;;;15.23;4.60;;;25.60;60.10;;;;;;5051000;28;20381;-74
2022/05/10 13:17:52;;;;;;;15.88;4.30;;;25.40;60.10;;;;;;5052388;28;20041;-75
2022/05/10 13:20:24;;;;;;;9.60;4.70;;;25.30;60.60;;;;;;5052037;28;20064;-74
2022/05/10 13:22:52;;;;;;;16.77;4.50;;;25.20;61.40;;;;;;5052075;28;20365;-77